Terminal Aerodrome Forecast
Issued by NWS

Home | Current Version | Previous Version | Text Only | Print | Product List | Glossary On
Versions: 1 2 3 4 5 6 7 8 9 10 11 12
000
FTUS45 KTFX 211700 RRA
TAFHLN
TAF
KHLN 211751Z 2118/2218 28005KT P6SM BKN080
     FM220000 21005KT P6SM SCT080 BKN120
     FM220500 22005KT P6SM BKN100=

USA.gov is the U.S. government's official web portal to all federal, state and local government web resources and services.